Wetterdaten: aktuell Sonntag, 26.06.2022 21:50
Datum Zeit Lufttemp. Wassertemp. Feuchte Luftdruck Regen Wind Richtung Richtung Windben
26.06.2022 21:50 28,8 C 26,7 C 49 % 1011,5 hPa 0,0 l/m 0,2 kts (0 Bft) S-SO 157 2,1 kts (1 Bft)
26.06.2022 21:49 28,8 C 26,7 C 49 % 1011,5 hPa 0,0 l/m 0,7 kts (1 Bft) S-SO 157 2,1 kts (1 Bft)
26.06.2022 21:48 28,8 C 26,7 C 49 % 1011,5 hPa 0,0 l/m 4,2 kts (2 Bft) S-SO 156 7,3 kts (3 Bft)
26.06.2022 21:47 28,7 C 26,7 C 51 % 1011,5 hPa 0,0 l/m 1,7 kts (1 Bft) S-SO 157 8,3 kts (3 Bft)
26.06.2022 21:46 28,7 C 26,7 C 50 % 1011,5 hPa 0,0 l/m 3,9 kts (2 Bft) S-SO 157 7,3 kts (3 Bft)
26.06.2022 21:45 28,6 C 26,7 C 52 % 1011,4 hPa 0,0 l/m 1,7 kts (1 Bft) S-SO 165 7,3 kts (3 Bft)
26.06.2022 21:44 28,5 C 26,7 C 49 % 1011,3 hPa 0,0 l/m 3,5 kts (2 Bft) S-SO 158 6,3 kts (2 Bft)
26.06.2022 21:43 28,4 C 26,7 C 49 % 1011,4 hPa 0,0 l/m 2,3 kts (1 Bft) S-SO 161 7,3 kts (3 Bft)
26.06.2022 21:42 28,3 C 26,7 C 51 % 1011,3 hPa 0,0 l/m 6,3 kts (2 Bft) SO 138 11,4 kts (4 Bft)
26.06.2022 21:41 28,3 C 26,7 C 53 % 1011,3 hPa 0,0 l/m 1,0 kts (1 Bft) S-SO 157 11,4 kts (4 Bft)
26.06.2022 21:40 28,3 C 26,7 C 53 % 1011,3 hPa 0,0 l/m 0,1 kts (0 Bft) S-SW 193 2,1 kts (1 Bft)
26.06.2022 21:39 28,3 C 26,7 C 52 % 1011,3 hPa 0,0 l/m 1,3 kts (1 Bft) S-SW 193 7,3 kts (3 Bft)
26.06.2022 21:38 28,3 C 26,7 C 52 % 1011,4 hPa 0,0 l/m 0,4 kts (0 Bft) S-SW 193 3,1 kts (2 Bft)
26.06.2022 21:37 28,3 C 26,7 C 51 % 1011,3 hPa 0,0 l/m 0,0 kts (0 Bft) S-SW 194 0,0 kts (0 Bft)
26.06.2022 21:36 28,3 C 26,7 C 51 % 1011,3 hPa 0,0 l/m 0,0 kts (0 Bft) S-SW 194 0,0 kts (0 Bft)
26.06.2022 21:35 28,3 C 26,7 C 50 % 1011,3 hPa 0,0 l/m 0,0 kts (0 Bft) S-SW 194 0,0 kts (0 Bft)
26.06.2022 21:34 28,3 C 26,7 C 50 % 1011,3 hPa 0,0 l/m 0,0 kts (0 Bft) S-SW 194 0,0 kts (0 Bft)
26.06.2022 21:33 28,3 C 26,7 C 50 % 1011,3 hPa 0,0 l/m 0,0 kts (0 Bft) S-SW 194 0,0 kts (0 Bft)
26.06.2022 21:32 28,3 C 26,7 C 50 % 1011,3 hPa 0,0 l/m 1,2 kts (1 Bft) S-SW 194 4,2 kts (2 Bft)
26.06.2022 21:31 28,3 C 26,7 C 51 % 1011,3 hPa 0,0 l/m 0,2 kts (0 Bft) S-SW 194 1,0 kts (1 Bft)
26.06.2022 21:30 28,3 C 26,7 C 51 % 1011,3 hPa 0,0 l/m 0,0 kts (0 Bft) S-SW 194 0,0 kts (0 Bft)
26.06.2022 21:29 28,3 C 26,7 C 50 % 1011,2 hPa 0,0 l/m 0,0 kts (0 Bft) S-SW 194 0,0 kts (0 Bft)
26.06.2022 21:28 28,3 C 26,7 C 49 % 1011,3 hPa 0,0 l/m 2,1 kts (1 Bft) S-SW 194 6,3 kts (2 Bft)
26.06.2022 21:27 28,3 C 26,7 C 51 % 1011,2 hPa 0,0 l/m 0,4 kts (0 Bft) S-SW 194 3,1 kts (2 Bft)
26.06.2022 21:26 28,4 C 26,7 C 51 % 1011,2 hPa 0,0 l/m 0,0 kts (0 Bft) S-SW 194 0,0 kts (0 Bft)
26.06.2022 21:25 28,4 C 26,7 C 50 % 1011,2 hPa 0,0 l/m 0,0 kts (0 Bft) S-SW 194 0,0 kts (0 Bft)
26.06.2022 21:24 28,4 C 26,7 C 49 % 1011,1 hPa 0,0 l/m 2,8 kts (1 Bft) S-SW 194 7,3 kts (3 Bft)
26.06.2022 21:23 28,4 C 26,7 C 50 % 1011,1 hPa 0,0 l/m 1,0 kts (1 Bft) S-SW 195 3,1 kts (2 Bft)
26.06.2022 21:22 28,4 C 26,7 C 50 % 1011,1 hPa 0,0 l/m 0,0 kts (0 Bft) S-SW 195 0,0 kts (0 Bft)
26.06.2022 21:21 28,5 C 27,2 C 51 % 1011,1 hPa 0,0 l/m 0,3 kts (0 Bft) S-SW 195 3,1 kts (2 Bft)
26.06.2022 21:20 28,6 C 27,2 C 51 % 1011,1 hPa 0,0 l/m 0,4 kts (0 Bft) S-SW 196 2,1 kts (1 Bft)
26.06.2022 21:19 28,6 C 27,2 C 51 % 1011,0 hPa 0,0 l/m 1,1 kts (1 Bft) S-SW 196 4,2 kts (2 Bft)
26.06.2022 21:18 28,7 C 27,2 C 50 % 1011,0 hPa 0,0 l/m 0,0 kts (0 Bft) S-SW 196 0,0 kts (0 Bft)
26.06.2022 21:17 28,7 C 27,2 C 49 % 1011,0 hPa 0,0 l/m 0,0 kts (0 Bft) S-SW 196 0,0 kts (0 Bft)
26.06.2022 21:16 28,7 C 27,2 C 48 % 1011,0 hPa 0,0 l/m 3,2 kts (2 Bft) S-SW 196 7,3 kts (3 Bft)
26.06.2022 21:15 28,8 C 27,2 C 50 % 1010,9 hPa 0,0 l/m 1,7 kts (1 Bft) S-SW 196 7,3 kts (3 Bft)
26.06.2022 21:14 28,9 C 27,2 C 50 % 1010,9 hPa 0,0 l/m 0,0 kts (0 Bft) S-SW 196 0,0 kts (0 Bft)
26.06.2022 21:13 28,9 C 27,2 C 48 % 1011,0 hPa 0,0 l/m 0,6 kts (1 Bft) S-SW 196 5,2 kts (2 Bft)
26.06.2022 21:12 29,1 C 27,2 C 49 % 1011,0 hPa 0,0 l/m 0,9 kts (1 Bft) S-SW 196 6,3 kts (2 Bft)
26.06.2022 21:11 29,2 C 27,2 C 49 % 1011,0 hPa 0,0 l/m 1,7 kts (1 Bft) S-SW 196 7,3 kts (3 Bft)
26.06.2022 21:10 29,3 C 27,2 C 50 % 1010,9 hPa 0,0 l/m 0,7 kts (1 Bft) S-SW 196 3,1 kts (2 Bft)
26.06.2022 21:09 29,4 C 27,2 C 48 % 1011,0 hPa 0,0 l/m 1,1 kts (1 Bft) S-SW 196 4,2 kts (2 Bft)
26.06.2022 21:00 30,2 C 27,2 C 42 % 1010,8 hPa 0,0 l/m 5,7 kts (2 Bft) SW 229 12,5 kts (4 Bft)
26.06.2022 20:59 30,2 C 27,2 C 42 % 1010,8 hPa 0,0 l/m 7,0 kts (3 Bft) SW 221 12,5 kts (4 Bft)
26.06.2022 20:58 30,2 C 27,2 C 42 % 1010,8 hPa 0,0 l/m 6,3 kts (2 Bft) SW 223 15,7 kts (5 Bft)
26.06.2022 20:57 30,2 C 27,2 C 43 % 1010,8 hPa 0,0 l/m 4,9 kts (2 Bft) W-SW 240 14,6 kts (5 Bft)
26.06.2022 20:56 30,2 C 27,2 C 42 % 1010,8 hPa 0,0 l/m 5,5 kts (2 Bft) S-SW 200 8,3 kts (3 Bft)
26.06.2022 20:55 30,2 C 27,2 C 42 % 1010,8 hPa 0,0 l/m 6,4 kts (2 Bft) S-SW 210 14,6 kts (5 Bft)
26.06.2022 20:54 30,2 C 27,2 C 42 % 1010,7 hPa 0,0 l/m 4,8 kts (2 Bft) SW 228 10,4 kts (3 Bft)
26.06.2022 20:53 30,2 C 27,2 C 42 % 1010,7 hPa 0,0 l/m 7,3 kts (3 Bft) SW 226 13,6 kts (4 Bft)
26.06.2022 20:52 30,2 C 27,2 C 42 % 1010,7 hPa 0,0 l/m 6,5 kts (2 Bft) SW 236 11,4 kts (4 Bft)
26.06.2022 20:51 30,2 C 27,2 C 42 % 1010,7 hPa 0,0 l/m 2,1 kts (1 Bft) SW 225 10,4 kts (3 Bft)
26.06.2022 20:50 30,2 C 27,2 C 42 % 1010,6 hPa 0,0 l/m 2,5 kts (1 Bft) SW 236 9,4 kts (3 Bft)
26.06.2022 20:49 30,2 C 27,2 C 41 % 1010,6 hPa 0,0 l/m 7,2 kts (3 Bft) W-SW 240 12,5 kts (4 Bft)
26.06.2022 20:48 30,3 C 27,2 C 42 % 1010,6 hPa 0,0 l/m 4,4 kts (2 Bft) SW 220 11,4 kts (4 Bft)
26.06.2022 20:47 30,3 C 27,2 C 41 % 1010,6 hPa 0,0 l/m 1,5 kts (1 Bft) SW 224 4,2 kts (2 Bft)
26.06.2022 20:46 30,3 C 27,2 C 41 % 1010,6 hPa 0,0 l/m 1,3 kts (1 Bft) SW 232 8,3 kts (3 Bft)
26.06.2022 20:45 30,3 C 27,2 C 41 % 1010,6 hPa 0,0 l/m 5,0 kts (2 Bft) SW 224 9,4 kts (3 Bft)
26.06.2022 20:44 30,3 C 27,2 C 41 % 1010,6 hPa 0,0 l/m 10,5 kts (3 Bft) S-SW 213 18,8 kts (5 Bft)
26.06.2022 20:43 30,3 C 27,2 C 41 % 1010,6 hPa 0,0 l/m 8,0 kts (3 Bft) SW 225 21,9 kts (6 Bft)
26.06.2022 20:42 30,3 C 27,2 C 41 % 1010,6 hPa 0,0 l/m 7,1 kts (3 Bft) SW 231 14,6 kts (5 Bft)
_ Min-Zeit 07:23 06:11 17:38 18:07 - 00:00 - - 00:00
Minimum _ 16,9 C 25,6 C 35 % 1009,5 hPa - 0,0 kts (0 Bft) - - 0,0 kts (0 Bft)
_ Max-Zeit 16:49 15:58 06:51 09:24 00:00 18:51 - - 20:11
Maximum _ 33,0 C 27,8 C 86 % 1015,5 hPa 0,0 l/m 15,7 kts
W-SW (5 Bft)
- - 24,0 kts
W-SW (6 Bft)
Durchschnitt _ 25,5 C 26,4 C 58 % 1012,7 hPa #0,0 l/m 2,4 kts (1 Bft) W-SW - 4,5 kts (2 Bft)